Terminal Aerodrome Forecast
Issued by NWS

Home | Current Version | Previous Version | Text Only | Print | Product List | Glossary On
Versions: 1 2 3 4 5 6 7 8 9 10 11 12 13
575
FTUS45 KTFX 200520
TAFCTB
TAF
KCTB 200520Z 2006/2106 24014G23KT P6SM FEW050 SCT200
      TEMPO 2006/2010 BKN050
     FM201900 25019G29KT P6SM BKN050 BKN110
     FM210300 25013G21KT P6SM FEW060 FEW120=

USA.gov is the U.S. government's official web portal to all federal, state and local government web resources and services.